Time;durP1;ratioP1;P1;durP2;ratioP2;P2;SDS_P1;SDS_P2;PMS_P1;PMS_P2;Temp;Humidity;BMP_temperature;BMP_pressure;BME280_temperature;BME280_humidity;BME280_pressure;Samples;Min_cycle;Max_cycle;Signal;HPM_P1;HPM_P2
2021/12/17 00:06:12;;;;;;;35.65;19.70;;;;;;;4.58;83.07;100591.47;1655584;86;21692;-49
2021/12/17 00:08:40;;;;;;;28.30;15.23;;;;;;;4.63;82.95;100568.54;1655533;86;21419;-50
2021/12/17 00:11:48;;;;;;;22.85;13.80;;;;;;;4.62;82.59;100570.38;1655595;86;21928;-48
2021/12/17 00:14:56;;;;;;;20.77;13.43;;;;;;;4.61;82.55;100568.16;1655596;86;21818;-49
2021/12/17 00:18:11;;;;;;;19.73;12.68;;;;;;;4.61;82.64;100562.73;1655723;86;21233;-49
2021/12/17 00:48:48;;;;;;;28.40;16.05;;;;;;;4.80;82.83;100553.00;1630789;87;21245;-48
2021/12/17 00:54:51;;;;;;;28.10;16.12;;;;;;;4.78;82.80;100551.78;1630096;88;21265;-49
2021/12/17 00:57:56;;;;;;;27.10;15.48;;;;;;;4.80;82.91;100544.86;1630015;88;21242;-48
2021/12/17 01:01:03;;;;;;;27.58;14.90;;;;;;;4.81;82.87;100539.30;1630409;87;21242;-50
2021/12/17 01:04:10;;;;;;;24.35;13.80;;;;;;;4.84;82.87;100549.01;1630130;87;21841;-49
2021/12/17 01:07:18;;;;;;;21.70;13.30;;;;;;;4.84;82.83;100543.09;1630155;87;21238;-48
2021/12/17 01:10:45;;;;;;;21.48;13.40;;;;;;;4.84;82.81;100538.16;1630382;87;21222;-49
2021/12/17 01:14:02;;;;;;;19.85;13.15;;;;;;;4.85;82.80;100533.98;1630160;88;21731;-49
2021/12/17 01:17:23;;;;;;;21.68;12.98;;;;;;;4.87;82.91;100528.42;1630020;88;21244;-48
2021/12/17 01:24:14;;;;;;;20.23;12.90;;;;;;;4.90;82.94;100522.20;1640060;82;21245;-49
2021/12/17 01:38:54;;;;;;;20.80;13.15;;;;;;;4.98;82.99;100505.27;1630531;87;21305;-48
2021/12/17 01:44:14;;;;;;;24.18;13.93;;;;;;;5.01;82.99;100500.92;1632299;87;21487;-48
2021/12/17 01:47:19;;;;;;;23.62;13.20;;;;;;;5.03;82.97;100502.98;1624294;87;21380;-47
2021/12/17 02:00:37;;;;;;;17.23;10.98;;;;;;;5.07;82.80;100488.16;1632581;87;21368;-48
2021/12/17 02:03:42;;;;;;;18.40;10.88;;;;;;;5.08;82.80;100493.44;1639105;86;21403;-48
2021/12/17 02:06:52;;;;;;;14.90;9.45;;;;;;;5.09;82.78;100496.50;1639404;87;21774;-49
2021/12/17 02:20:22;;;;;;;11.30;8.10;;;;;;;5.13;82.71;100497.96;1608903;89;21238;-49
2021/12/17 02:30:46;;;;;;;8.88;6.37;;;;;;;5.16;82.79;100492.74;1655520;86;21376;-50
2021/12/17 02:33:13;;;;;;;7.10;5.25;;;;;;;5.18;82.82;100481.26;1623292;88;21276;-49
2021/12/17 02:36:27;;;;;;;7.85;5.15;;;;;;;5.18;82.84;100477.19;1655882;86;21388;-50
2021/12/17 02:45:31;;;;;;;6.95;5.17;;;;;;;5.24;83.00;100469.35;1655483;86;21424;-50
2021/12/17 02:45:48;;;;;;;7.53;6.10;;;;;;;5.26;82.96;100472.80;1623265;88;21255;-51
2021/12/17 02:48:53;;;;;;;8.93;5.95;;;;;;;5.27;82.83;100473.63;1656090;86;21328;-49
2021/12/17 02:51:59;;;;;;;6.62;5.35;;;;;;;5.26;82.80;100470.56;1623616;88;21887;-48
2021/12/17 02:55:07;;;;;;;8.00;5.95;;;;;;;5.25;82.84;100471.05;1634366;86;21233;-48
2021/12/17 02:58:13;;;;;;;7.72;6.03;;;;;;;5.23;82.73;100467.61;1623191;88;21240;-48
2021/12/17 03:01:21;;;;;;;8.18;5.85;;;;;;;5.20;82.83;100462.47;1655597;86;21287;-49
2021/12/17 03:04:29;;;;;;;10.13;6.50;;;;;;;5.22;83.06;100450.98;1623323;88;21228;-49
2021/12/17 03:07:38;;;;;;;11.15;7.17;;;;;;;5.22;82.90;100448.27;1655041;86;21372;-49
2021/12/17 03:10:43;;;;;;;9.03;6.80;;;;;;;5.22;83.09;100445.56;1623211;87;21276;-49
2021/12/17 03:13:50;;;;;;;10.15;7.22;;;;;;;5.25;83.27;100447.98;1626245;86;21250;-49
2021/12/17 03:17:07;;;;;;;10.38;6.55;;;;;;;5.29;83.33;100440.43;1623127;88;21296;-49
2021/12/17 03:23:41;;;;;;;13.10;7.80;;;;;;;5.31;83.32;100415.38;1623381;88;21291;-50
2021/12/17 03:26:48;;;;;;;13.18;8.03;;;;;;;5.33;83.47;100413.34;1611057;86;21323;-48
2021/12/17 03:29:54;;;;;;;13.55;8.23;;;;;;;5.34;83.48;100424.59;1609568;89;21251;-49
2021/12/17 03:32:59;;;;;;;16.67;8.70;;;;;;;5.30;83.32;100428.56;1609792;88;21367;-48
2021/12/17 03:36:05;;;;;;;20.27;9.50;;;;;;;5.30;83.49;100430.79;1609594;89;21235;-48
2021/12/17 03:39:11;;;;;;;24.82;11.33;;;;;;;5.29;83.61;100425.02;1609642;89;21267;-50
2021/12/17 03:42:20;;;;;;;17.90;10.50;;;;;;;5.30;83.70;100427.20;1609612;89;21238;-49
2021/12/17 03:45:27;;;;;;;17.55;10.40;;;;;;;5.28;83.68;100426.52;1609563;89;21235;-50
2021/12/17 03:48:37;;;;;;;22.22;11.30;;;;;;;5.29;83.77;100415.52;1609699;89;21756;-50
2021/12/17 03:51:51;;;;;;;19.90;10.38;;;;;;;5.27;83.73;100413.44;1609669;89;21575;-49
2021/12/17 03:54:56;;;;;;;16.67;10.05;;;;;;;5.27;83.74;100401.22;1609706;89;21311;-50
2021/12/17 03:58:06;;;;;;;21.57;11.03;;;;;;;5.24;83.75;100391.14;1609591;89;21278;-50
2021/12/17 04:01:11;;;;;;;20.02;11.43;;;;;;;5.23;83.82;100391.63;1609752;89;21262;-48
2021/12/17 04:04:18;;;;;;;19.48;10.75;;;;;;;5.23;83.86;100397.58;1609656;88;21231;-51
2021/12/17 04:07:35;;;;;;;23.77;12.65;;;;;;;5.21;83.82;100391.43;1611120;86;21250;-50
2021/12/17 04:11:06;;;;;;;22.10;12.70;;;;;;;5.17;83.96;100400.87;1653402;86;21259;-49
2021/12/17 04:14:12;;;;;;;26.07;13.28;;;;;;;5.13;84.26;100396.70;1609556;89;21590;-49
2021/12/17 04:17:25;;;;;;;25.02;13.43;;;;;;;5.12;84.36;100396.36;1609668;89;21751;-48
2021/12/17 04:20:29;;;;;;;22.20;14.23;;;;;;;5.10;84.53;100395.14;1609776;88;21254;-49
2021/12/17 04:23:35;;;;;;;29.23;13.48;;;;;;;5.10;84.67;100387.50;1609727;89;21251;-50
2021/12/17 04:26:45;;;;;;;27.82;15.08;;;;;;;5.10;84.64;100395.63;1633377;83;21265;-49
2021/12/17 04:29:52;;;;;;;33.25;13.85;;;;;;;5.06;84.73;100398.28;1660611;86;21929;-49
2021/12/17 04:33:00;;;;;;;27.45;14.73;;;;;;;5.02;84.71;100381.91;1660804;86;21260;-49
2021/12/17 04:36:06;;;;;;;26.85;14.38;;;;;;;4.97;84.87;100389.61;1659917;86;21801;-48
2021/12/17 04:39:15;;;;;;;29.37;14.63;;;;;;;4.96;84.90;100387.91;1660991;86;21250;-48
2021/12/17 04:42:35;;;;;;;35.03;14.90;;;;;;;4.95;85.03;100382.13;1660438;86;21228;-49
2021/12/17 04:45:36;;;;;;;36.05;15.18;;;;;;;4.98;85.20;100384.04;1637228;86;21279;-50
2021/12/17 04:58:56;;;;;;;44.55;14.35;;;;;;;5.09;85.22;100380.36;1660454;86;21289;-50
2021/12/17 05:02:03;;;;;;;46.73;14.25;;;;;;;5.06;85.32;100380.13;1660644;86;21237;-52
2021/12/17 05:05:15;;;;;;;37.93;14.70;;;;;;;5.05;85.32;100377.56;1660586;86;21308;-51
2021/12/17 05:08:23;;;;;;;37.73;15.80;;;;;;;5.00;85.32;100380.70;1660273;86;21249;-50
2021/12/17 05:18:13;;;;;;;37.60;16.60;;;;;;;5.06;85.59;100382.01;1660074;85;21798;-50
2021/12/17 05:18:22;;;;;;;42.23;15.25;;;;;;;5.14;85.68;100385.71;1633955;88;21406;-50
2021/12/17 05:21:25;;;;;;;36.98;16.15;;;;;;;5.19;85.73;100383.92;1648691;87;21250;-49
2021/12/17 05:24:31;;;;;;;39.50;15.38;;;;;;;5.20;85.53;100378.35;1634191;88;21398;-50
2021/12/17 05:27:37;;;;;;;35.40;16.80;;;;;;;5.22;85.50;100379.56;1655182;81;21392;-49
2021/12/17 05:30:47;;;;;;;33.90;16.50;;;;;;;5.24;85.58;100374.86;1623048;88;21407;-49
2021/12/17 05:33:54;;;;;;;29.02;15.23;;;;;;;5.28;85.57;100379.02;1633100;86;21282;-51
2021/12/17 05:37:05;;;;;;;32.98;16.17;;;;;;;5.29;85.63;100381.59;1632019;86;21333;-52
2021/12/17 05:40:14;;;;;;;40.10;15.88;;;;;;;5.32;85.54;100375.02;1603305;88;21227;-51
2021/12/17 05:43:21;;;;;;;35.15;16.07;;;;;;;5.30;85.47;100381.94;1622644;87;21253;-52
2021/12/17 05:49:53;;;;;;;36.42;16.07;;;;;;;5.38;85.68;100379.37;1613400;86;21372;-52
2021/12/17 05:52:59;;;;;;;34.48;15.13;;;;;;;5.37;85.44;100377.67;1609084;88;21257;-51
2021/12/17 05:56:05;;;;;;;31.82;15.58;;;;;;;5.39;85.55;100382.95;1630723;88;21742;-51
2021/12/17 05:59:13;;;;;;;34.15;16.25;;;;;;;5.41;85.45;100373.66;1622779;86;21245;-52
2021/12/17 06:02:22;;;;;;;32.03;15.95;;;;;;;5.43;85.28;100378.94;1646744;86;21740;-52
2021/12/17 06:05:29;;;;;;;38.08;16.37;;;;;;;5.40;85.27;100376.52;1629539;87;21233;-52
2021/12/17 06:08:35;;;;;;;34.53;16.65;;;;;;;5.38;85.30;100379.37;1630703;86;21222;-51
2021/12/17 06:11:45;;;;;;;35.30;16.60;;;;;;;5.40;85.29;100383.30;1618442;88;21221;-52
2021/12/17 06:14:51;;;;;;;37.88;16.62;;;;;;;5.37;85.20;100379.03;1614020;88;21517;-52
2021/12/17 06:17:56;;;;;;;34.60;16.90;;;;;;;5.36;85.25;100377.81;1620125;88;21795;-52
2021/12/17 06:21:01;;;;;;;34.43;16.55;;;;;;;5.37;85.35;100379.52;1628134;87;21806;-51
2021/12/17 06:24:06;;;;;;;36.85;18.23;;;;;;;5.41;85.46;100378.21;1628050;87;21230;-52
2021/12/17 06:27:12;;;;;;;38.15;19.40;;;;;;;5.39;85.29;100377.52;1614211;88;21359;-52
2021/12/17 06:30:20;;;;;;;32.33;15.95;;;;;;;5.36;85.22;100375.94;1648404;84;21276;-52
2021/12/17 06:33:26;;;;;;;34.48;17.23;;;;;;;5.39;85.38;100380.23;1649571;85;21249;-52
2021/12/17 06:36:31;;;;;;;33.40;18.20;;;;;;;5.42;85.29;100375.35;1643278;87;21249;-50
2021/12/17 06:39:37;;;;;;;35.80;18.30;;;;;;;5.40;85.13;100368.37;1635184;86;21222;-51
2021/12/17 06:42:46;;;;;;;34.50;17.75;;;;;;;5.40;85.13;100368.37;1619891;87;21886;-49
2021/12/17 06:45:58;;;;;;;33.15;16.50;;;;;;;5.39;85.09;100374.28;1631878;87;21234;-51
2021/12/17 06:49:18;;;;;;;34.20;17.20;;;;;;;5.38;85.03;100373.08;1610581;88;21312;-51
2021/12/17 07:36:18;;;;;;;34.35;17.95;;;;;;;5.58;84.78;100382.42;1628133;86;21795;-51
2021/12/17 07:39:26;;;;;;;42.50;19.67;;;;;;;5.49;84.85;100383.78;1623612;86;21295;-52
2021/12/17 07:42:33;;;;;;;41.23;19.35;;;;;;;5.47;85.00;100386.64;1626592;87;21345;-51
2021/12/17 07:45:40;;;;;;;39.67;19.80;;;;;;;5.51;85.11;100381.80;1628375;86;21794;-50
2021/12/17 07:48:48;;;;;;;40.70;18.90;;;;;;;5.53;85.14;100386.59;1640339;86;21795;-50
2021/12/17 07:51:55;;;;;;;40.75;19.10;;;;;;;5.59;85.22;100384.16;1631798;87;21297;-50
2021/12/17 07:55:01;;;;;;;36.85;18.07;;;;;;;5.68;85.24;100381.92;1644656;86;21350;-49
2021/12/17 07:58:10;;;;;;;36.85;17.62;;;;;;;5.73;85.14;100381.48;1623513;87;21795;-52
2021/12/17 08:01:16;;;;;;;40.70;20.82;;;;;;;5.82;85.16;100378.78;1621215;87;21243;-50
2021/12/17 08:04:23;;;;;;;42.48;21.10;;;;;;;5.99;85.19;100378.02;1647553;86;21240;-54
2021/12/17 08:07:30;;;;;;;40.15;19.45;;;;;;;6.09;84.91;100377.50;1630544;86;21358;-51
2021/12/17 08:10:36;;;;;;;36.90;16.70;;;;;;;6.14;84.67;100374.34;1626734;87;21838;-50
2021/12/17 08:13:44;;;;;;;34.85;17.32;;;;;;;6.14;84.38;100366.19;1614099;88;21817;-50
2021/12/17 08:16:59;;;;;;;30.48;16.05;;;;;;;6.18;84.35;100366.27;1623503;87;21614;-51
2021/12/17 08:29:52;;;;;;;26.65;14.78;;;;;;;6.23;83.65;100366.67;1627599;85;21503;-50
2021/12/17 08:32:53;;;;;;;27.55;15.58;;;;;;;6.21;83.31;100356.45;1650910;84;21162;-51
2021/12/17 08:36:00;;;;;;;28.73;15.28;;;;;;;6.24;83.19;100356.64;1639715;85;21272;-51
2021/12/17 08:39:06;;;;;;;25.45;14.20;;;;;;;6.26;83.09;100350.56;1643970;86;21256;-50
2021/12/17 08:42:15;;;;;;;24.50;14.30;;;;;;;6.28;82.91;100353.47;1648291;86;21221;-51
2021/12/17 08:45:21;;;;;;;26.50;15.00;;;;;;;6.35;82.98;100354.59;1639110;86;21643;-51
2021/12/17 08:48:32;;;;;;;25.17;14.63;;;;;;;6.44;82.89;100350.97;1597757;86;21275;-50
2021/12/17 08:51:57;;;;;;;26.82;14.50;;;;;;;6.40;82.42;100344.14;1640461;85;21238;-51
2021/12/17 08:55:04;;;;;;;23.22;13.08;;;;;;;6.38;82.32;100343.42;1616425;88;21245;-51
2021/12/17 08:58:15;;;;;;;23.22;13.40;;;;;;;6.33;82.32;100343.53;1657495;85;21302;-49
2021/12/17 09:01:22;;;;;;;21.93;12.58;;;;;;;6.26;82.29;100344.63;1656863;86;21610;-51
2021/12/17 09:04:31;;;;;;;18.48;11.35;;;;;;;6.18;82.23;100347.23;1656970;86;21746;-52
2021/12/17 09:07:39;;;;;;;25.00;14.60;;;;;;;6.12;82.20;100336.10;1657066;86;21216;-52
2021/12/17 09:10:48;;;;;;;30.32;19.10;;;;;;;6.05;82.32;100339.91;1646514;86;21619;-51
2021/12/17 09:14:11;;;;;;;32.13;20.90;;;;;;;6.03;82.46;100341.91;1647696;86;21249;-51
2021/12/17 09:17:24;;;;;;;24.02;15.05;;;;;;;6.09;82.76;100331.80;1637739;87;21214;-51
2021/12/17 09:20:32;;;;;;;24.80;13.18;;;;;;;6.19;82.77;100337.20;1627338;87;21319;-49
2021/12/17 09:23:40;;;;;;;22.90;12.58;;;;;;;6.23;82.67;100332.70;1626680;87;21766;-50
2021/12/17 09:26:48;;;;;;;22.15;12.55;;;;;;;6.18;82.45;100328.70;1631111;86;21233;-50
2021/12/17 09:29:57;;;;;;;20.17;12.28;;;;;;;6.12;82.38;100326.06;1625633;87;21269;-51
2021/12/17 09:33:03;;;;;;;18.95;11.30;;;;;;;6.07;82.65;100328.41;1631538;85;21782;-50
2021/12/17 09:36:12;;;;;;;20.20;12.03;;;;;;;6.04;82.49;100327.34;1627227;87;21249;-51
2021/12/17 09:39:21;;;;;;;21.40;12.25;;;;;;;5.98;82.50;100326.55;1646121;87;21644;-50
2021/12/17 09:42:27;;;;;;;18.82;11.45;;;;;;;6.02;82.89;100322.02;1654730;86;21231;-51
2021/12/17 09:45:35;;;;;;;17.45;10.70;;;;;;;6.13;82.90;100324.22;1609337;88;21264;-51
2021/12/17 09:48:41;;;;;;;21.07;11.80;;;;;;;6.18;82.85;100314.63;1653862;86;21778;-51
2021/12/17 09:51:50;;;;;;;22.30;12.37;;;;;;;6.17;82.56;100316.97;1633833;86;21248;-50
2021/12/17 09:54:57;;;;;;;22.07;11.68;;;;;;;6.15;82.67;100316.28;1636016;86;21858;-52
2021/12/17 09:58:03;;;;;;;21.93;13.13;;;;;;;6.16;82.64;100319.84;1649811;85;21273;-50
2021/12/17 10:01:12;;;;;;;25.23;16.07;;;;;;;6.19;82.80;100308.17;1642989;86;21567;-51
2021/12/17 10:04:27;;;;;;;23.73;14.00;;;;;;;6.29;82.82;100312.20;1646729;86;21592;-51
2021/12/17 10:07:41;;;;;;;22.77;15.25;;;;;;;6.37;82.50;100308.23;1642407;86;21743;-52
2021/12/17 10:10:51;;;;;;;26.27;16.60;;;;;;;6.38;82.08;100306.72;1616890;86;21223;-51
2021/12/17 10:13:56;;;;;;;22.95;12.45;;;;;;;6.40;82.15;100302.00;1649283;86;21770;-51
2021/12/17 10:17:17;;;;;;;22.30;12.23;;;;;;;6.40;81.95;100297.92;1652668;85;21237;-49
2021/12/17 10:20:22;;;;;;;21.27;12.53;;;;;;;6.38;81.93;100293.63;1636828;86;21689;-51
2021/12/17 10:23:31;;;;;;;19.25;11.78;;;;;;;6.38;81.85;100294.48;1656958;86;21712;-50
2021/12/17 10:26:48;;;;;;;20.12;12.10;;;;;;;6.38;81.56;100294.48;1656841;86;21232;-52
2021/12/17 10:29:55;;;;;;;17.50;10.45;;;;;;;6.39;81.41;100294.83;1650633;86;21596;-51
2021/12/17 10:33:04;;;;;;;16.80;10.40;;;;;;;6.42;81.30;100283.68;1636402;83;22134;-49
2021/12/17 10:36:13;;;;;;;16.05;10.05;;;;;;;6.38;80.89;100278.17;1627186;87;21648;-50
2021/12/17 10:39:33;;;;;;;16.27;9.80;;;;;;;6.35;80.49;100283.92;1622324;88;21601;-50
2021/12/17 10:42:41;;;;;;;17.27;10.13;;;;;;;6.29;80.25;100284.53;1623429;88;21292;-51
2021/12/17 10:46:08;;;;;;;17.45;10.80;;;;;;;6.28;80.21;100279.25;1626636;87;21583;-50
2021/12/17 10:49:18;;;;;;;17.32;10.28;;;;;;;6.24;80.13;100277.33;1646636;85;21288;-51
2021/12/17 10:52:35;;;;;;;17.75;10.68;;;;;;;6.20;80.08;100279.14;1630586;86;21294;-50
2021/12/17 10:55:33;;;;;;;19.10;11.33;;;;;;;6.20;80.32;100275.90;1636220;85;21218;-50
2021/12/17 10:58:40;;;;;;;16.97;10.25;;;;;;;6.25;80.42;100270.04;1641917;85;21230;-50
2021/12/17 11:01:55;;;;;;;17.17;10.90;;;;;;;6.26;80.38;100273.96;1630202;85;21198;-50
2021/12/17 11:05:01;;;;;;;16.02;9.83;;;;;;;6.31;80.43;100266.71;1638387;85;21262;-51
2021/12/17 11:08:08;;;;;;;16.73;10.38;;;;;;;6.31;80.31;100262.62;1628840;85;21246;-51
2021/12/17 11:11:19;;;;;;;14.53;9.08;;;;;;;6.28;80.19;100251.54;1623396;85;21186;-51
2021/12/17 11:14:24;;;;;;;17.23;9.70;;;;;;;6.29;80.17;100255.98;1640332;87;21221;-52
2021/12/17 11:17:30;;;;;;;17.57;10.38;;;;;;;6.28;80.00;100257.50;1595617;85;21280;-51
2021/12/17 11:20:47;;;;;;;17.23;10.05;;;;;;;6.25;79.88;100255.92;1641910;85;21266;-51
2021/12/17 11:23:56;;;;;;;18.80;10.50;;;;;;;6.22;79.73;100261.66;1639026;85;21843;-51
2021/12/17 11:27:04;;;;;;;15.05;9.45;;;;;;;6.15;79.72;100255.14;1628575;87;21268;-52
2021/12/17 11:30:17;;;;;;;17.17;9.98;;;;;;;6.10;79.88;100252.02;1626183;87;21238;-52
2021/12/17 11:33:23;;;;;;;17.93;10.80;;;;;;;6.03;80.03;100255.83;1632430;86;22096;-50
2021/12/17 11:36:31;;;;;;;16.45;10.03;;;;;;;5.99;80.23;100262.55;1645263;86;22071;-51
2021/12/17 11:39:41;;;;;;;19.00;13.15;;;;;;;6.03;80.65;100262.62;1620672;87;21317;-51
2021/12/17 11:43:01;;;;;;;19.75;11.18;;;;;;;6.02;80.38;100257.34;1624110;87;21802;-54
2021/12/17 11:46:19;;;;;;;17.40;10.43;;;;;;;6.01;80.57;100256.48;1609737;88;21834;-52
2021/12/17 11:49:26;;;;;;;17.65;10.58;;;;;;;6.00;80.60;100257.49;1647411;85;21265;-52
2021/12/17 11:52:50;;;;;;;16.57;10.93;;;;;;;6.02;80.72;100249.19;1618402;87;21202;-52
2021/12/17 11:56:04;;;;;;;17.55;10.08;;;;;;;6.04;80.70;100256.17;1645483;86;21612;-52
2021/12/17 11:59:18;;;;;;;13.25;9.40;;;;;;;6.00;80.66;100257.98;1631758;86;21308;-52
2021/12/17 12:02:27;;;;;;;;;;;;;;;5.89;80.42;100257.69;1611166;88;21659;-52
2021/12/17 12:05:44;;;;;;;14.68;8.30;;;;;;;5.85;80.60;100261.69;1573238;91;20575;-52
2021/12/17 12:08:53;;;;;;;14.58;7.75;;;;;;;5.82;80.58;100254.33;1599305;88;21293;-53
2021/12/17 12:12:18;;;;;;;13.72;8.55;;;;;;;5.77;80.54;100254.75;1596155;88;21271;-52
2021/12/17 12:15:34;;;;;;;12.73;7.03;;;;;;;5.77;80.62;100253.92;1613613;88;21781;-52
2021/12/17 12:18:53;;;;;;;13.00;7.60;;;;;;;5.79;80.62;100245.09;1622113;88;21871;-51
2021/12/17 12:22:13;;;;;;;14.68;7.53;;;;;;;5.75;80.38;100244.56;1622448;88;21837;-51
2021/12/17 12:25:35;;;;;;;12.78;7.67;;;;;;;5.76;80.65;100259.84;1628389;87;21308;-52
2021/12/17 12:28:59;;;;;;;12.70;7.45;;;;;;;5.76;80.28;100258.48;1599656;89;21268;-51
2021/12/17 12:32:23;;;;;;;13.98;8.18;;;;;;;5.74;80.37;100259.65;1607216;86;21883;-52
2021/12/17 12:35:28;;;;;;;14.43;8.85;;;;;;;5.77;80.37;100263.42;1665629;84;21756;-53
2021/12/17 12:38:41;;;;;;;14.70;10.03;;;;;;;5.78;80.50;100268.70;1625395;86;21400;-51
2021/12/17 12:41:58;;;;;;;12.68;8.43;;;;;;;5.83;80.52;100271.00;1631865;86;21799;-52
2021/12/17 12:45:10;;;;;;;17.00;8.85;;;;;;;5.82;80.32;100267.91;1598999;89;21270;-51
2021/12/17 12:48:19;;;;;;;15.80;8.83;;;;;;;5.78;80.34;100268.70;1625049;86;21244;-52
2021/12/17 12:51:34;;;;;;;16.30;8.98;;;;;;;5.79;80.55;100272.25;1625300;87;21214;-52
2021/12/17 12:54:37;;;;;;;15.00;9.33;;;;;;;5.82;80.67;100262.48;1599557;87;21255;-53
2021/12/17 12:57:50;;;;;;;14.87;9.30;;;;;;;5.82;80.59;100273.34;1606789;86;21290;-52
2021/12/17 13:01:02;;;;;;;14.40;9.45;;;;;;;5.79;80.64;100272.25;1603033;88;21787;-52
2021/12/17 13:04:10;;;;;;;17.42;10.63;;;;;;;5.79;80.72;100274.97;1580688;90;21636;-53
2021/12/17 13:07:16;;;;;;;15.53;9.88;;;;;;;5.79;80.82;100274.97;1618636;86;21269;-52
2021/12/17 13:10:29;;;;;;;18.80;11.05;;;;;;;5.80;81.01;100272.62;1619369;87;21234;-53
2021/12/17 13:13:40;;;;;;;17.37;11.25;;;;;;;5.81;80.95;100275.69;1638355;86;21227;-53
2021/12/17 13:17:05;;;;;;;16.87;10.03;;;;;;;5.79;81.05;100276.33;1660588;86;21188;-52
2021/12/17 13:23:22;;;;;;;17.65;9.90;;;;;;;5.83;81.09;100279.16;1631952;87;21196;-52
2021/12/17 13:26:32;;;;;;;16.15;9.65;;;;;;;5.77;80.76;100287.87;1590144;86;21231;-51
2021/12/17 13:29:43;;;;;;;16.30;10.05;;;;;;;5.69;80.75;100287.74;1606939;88;21725;-51
2021/12/17 13:32:57;;;;;;;15.32;9.10;;;;;;;5.63;80.88;100289.66;1627183;87;22172;-52
2021/12/17 13:36:05;;;;;;;15.32;9.30;;;;;;;5.57;80.93;100288.41;1627924;84;21223;-52
2021/12/17 13:43:11;;;;;;;15.70;9.30;;;;;;;5.54;81.16;100290.06;1842350;76;22260;-51
2021/12/17 13:46:18;;;;;;;15.15;8.70;;;;;;;5.48;81.30;100292.50;1755764;80;21192;-50
2021/12/17 13:49:27;;;;;;;18.27;9.73;;;;;;;5.50;81.32;100287.79;1733254;82;21750;-50
2021/12/17 13:52:37;;;;;;;13.40;8.70;;;;;;;5.51;81.34;100286.77;1755610;80;21212;-51
2021/12/17 13:55:50;;;;;;;15.68;8.88;;;;;;;5.52;81.19;100292.05;1758799;80;21193;-52
2021/12/17 13:58:55;;;;;;;25.12;15.18;;;;;;;5.53;81.25;100295.64;1749277;81;21892;-51
2021/12/17 14:02:02;;;;;;;32.15;19.85;;;;;;;5.55;81.22;100290.92;1755695;81;21181;-51
2021/12/17 14:05:15;;;;;;;18.90;13.05;;;;;;;5.54;81.30;100288.70;1754224;80;21188;-51
2021/12/17 14:08:26;;;;;;;16.30;10.65;;;;;;;5.61;81.34;100290.34;1749920;80;21173;-51
2021/12/17 14:11:36;;;;;;;16.85;10.25;;;;;;;5.61;81.05;100291.69;1756796;81;21252;-50
2021/12/17 14:14:43;;;;;;;14.65;9.68;;;;;;;5.56;81.03;100295.34;1769087;79;21193;-51
2021/12/17 14:17:52;;;;;;;19.92;9.90;;;;;;;5.52;80.98;100291.19;1764568;79;21745;-52
2021/12/17 14:21:09;;;;;;;17.35;10.60;;;;;;;5.46;81.08;100288.58;1753307;81;21212;-51
2021/12/17 14:24:16;;;;;;;18.73;12.20;;;;;;;5.46;81.35;100296.72;1764642;80;21208;-50
2021/12/17 14:27:22;;;;;;;17.05;10.25;;;;;;;5.50;81.43;100300.84;1751577;81;21582;-52
2021/12/17 14:30:37;;;;;;;16.12;10.35;;;;;;;5.50;81.47;100304.08;1741645;81;21628;-53
2021/12/17 14:33:49;;;;;;;15.70;10.40;;;;;;;5.47;81.44;100311.16;1758946;81;21397;-52
2021/12/17 14:36:58;;;;;;;14.90;10.75;;;;;;;5.45;81.59;100307.72;1769363;80;21707;-52
2021/12/17 14:40:06;;;;;;;14.68;9.45;;;;;;;5.42;81.57;100306.66;1738604;80;21189;-52
2021/12/17 14:43:13;;;;;;;16.65;10.20;;;;;;;5.38;81.55;100309.29;1743437;80;21279;-50
2021/12/17 14:46:27;;;;;;;17.57;10.00;;;;;;;5.32;81.59;100301.73;1769394;80;21640;-51
2021/12/17 15:03:40;;;;;;;15.85;9.98;;;;;;;5.24;82.39;100305.66;1767717;79;22116;-52
2021/12/17 15:06:39;;;;;;;14.78;9.25;;;;;;;5.27;82.34;100312.16;1738015;82;21745;-52
2021/12/17 15:09:46;;;;;;;11.18;7.65;;;;;;;5.31;82.39;100305.46;1761585;80;21240;-52
2021/12/17 15:12:57;;;;;;;13.93;9.25;;;;;;;5.34;82.34;100311.46;1765747;79;23100;-50
2021/12/17 15:16:05;;;;;;;17.37;10.65;;;;;;;5.36;82.28;100309.96;1740309;81;21744;-52
2021/12/17 15:19:11;;;;;;;14.58;9.43;;;;;;;5.38;82.23;100318.79;1737932;82;21201;-52
2021/12/17 15:22:16;;;;;;;13.48;9.00;;;;;;;5.38;82.05;100313.36;1739401;82;21209;-52
2021/12/17 15:25:21;;;;;;;12.85;9.48;;;;;;;5.38;81.99;100316.08;1747946;81;21224;-52
2021/12/17 15:28:30;;;;;;;16.05;9.65;;;;;;;5.33;81.87;100315.65;1767682;80;21220;-52
2021/12/17 15:31:38;;;;;;;16.07;9.73;;;;;;;5.33;82.07;100327.38;1767777;81;21472;-52
2021/12/17 15:34:51;;;;;;;18.55;10.68;;;;;;;5.35;82.14;100320.44;1767203;80;21729;-52
2021/12/17 15:37:59;;;;;;;23.57;13.20;;;;;;;5.35;82.03;100328.58;1750475;81;21223;-52
2021/12/17 15:41:06;;;;;;;20.17;9.70;;;;;;;5.29;82.04;100319.17;1733970;80;21715;-52
2021/12/17 15:44:14;;;;;;;16.60;11.93;;;;;;;5.27;82.17;100318.45;1751323;79;21219;-53
2021/12/17 15:47:19;;;;;;;14.73;10.43;;;;;;;5.30;82.19;100322.72;1750669;81;21998;-52
2021/12/17 15:50:26;;;;;;;15.60;9.63;;;;;;;5.32;82.21;100326.16;1764347;81;21193;-52
2021/12/17 15:53:35;;;;;;;14.40;9.38;;;;;;;5.31;82.12;100329.89;1768038;79;21232;-51
2021/12/17 15:56:46;;;;;;;13.83;8.88;;;;;;;5.27;82.12;100324.38;1766359;80;21201;-52
2021/12/17 15:59:50;;;;;;;14.50;8.88;;;;;;;5.24;82.04;100321.95;1750366;79;21220;-52
2021/12/17 16:02:54;;;;;;;13.58;8.70;;;;;;;5.22;82.15;100326.66;1756190;79;21598;-52
2021/12/17 16:06:02;;;;;;;13.93;8.55;;;;;;;5.24;82.25;100319.23;1760102;80;21211;-52
2021/12/17 16:09:44;;;;;;;16.07;8.73;;;;;;;5.23;82.10;100328.39;1768571;80;21212;-52
2021/12/17 16:22:24;;;;;;;17.07;11.05;;;;;;;5.10;82.27;100334.59;1741130;82;21546;-52
2021/12/17 16:25:29;;;;;;;18.95;11.70;;;;;;;5.05;82.27;100336.38;1747954;81;21231;-52
2021/12/17 16:28:37;;;;;;;17.45;10.48;;;;;;;4.99;82.36;100329.30;1767764;80;21217;-52
2021/12/17 16:31:43;;;;;;;15.98;9.08;;;;;;;4.99;82.50;100338.80;1755455;81;21228;-52
2021/12/17 16:34:48;;;;;;;14.05;9.23;;;;;;;4.98;82.51;100339.29;1753239;80;21187;-52
2021/12/17 16:37:59;;;;;;;16.32;10.23;;;;;;;5.01;82.66;100350.38;1763283;80;21742;-53
2021/12/17 16:41:06;;;;;;;20.32;11.22;;;;;;;5.01;82.70;100347.66;1740746;80;21761;-52
2021/12/17 16:44:15;;;;;;;18.37;9.33;;;;;;;5.00;82.69;100354.93;1744411;80;21236;-53
2021/12/17 16:47:22;;;;;;;14.23;9.15;;;;;;;5.01;82.73;100355.28;1739516;81;21224;-52
2021/12/17 16:50:29;;;;;;;21.10;11.15;;;;;;;5.03;82.71;100354.64;1762366;80;21312;-53
2021/12/17 16:53:39;;;;;;;22.02;12.03;;;;;;;5.06;82.69;100363.85;1739955;80;21272;-52
2021/12/17 16:56:48;;;;;;;22.45;12.23;;;;;;;5.08;82.62;100362.35;1736101;82;21239;-52
2021/12/17 16:59:53;;;;;;;20.45;12.60;;;;;;;5.05;82.41;100367.58;1738800;82;21189;-51
2021/12/17 17:03:01;;;;;;;15.08;9.60;;;;;;;5.00;82.29;100367.14;1738050;82;21181;-52
2021/12/17 17:06:10;;;;;;;14.43;8.25;;;;;;;4.92;82.17;100368.83;1738093;82;21193;-52
2021/12/17 17:09:17;;;;;;;17.40;10.13;;;;;;;4.87;82.31;100372.48;1737574;82;21574;-53
2021/12/17 17:12:25;;;;;;;17.17;10.00;;;;;;;4.84;82.42;100367.31;1743968;81;21589;-52
2021/12/17 17:15:34;;;;;;;16.73;10.65;;;;;;;4.82;82.52;100356.60;1733313;81;21284;-52
2021/12/17 17:18:40;;;;;;;32.60;17.57;;;;;;;4.81;82.55;100357.61;1736853;82;21789;-52
2021/12/17 17:21:45;;;;;;;30.20;16.85;;;;;;;4.78;82.64;100349.77;1740943;81;21806;-51
2021/12/17 17:24:52;;;;;;;27.32;14.90;;;;;;;4.83;82.88;100350.20;1744458;80;21244;-52
2021/12/17 17:28:05;;;;;;;17.77;11.88;;;;;;;4.90;82.96;100347.79;1740518;82;21445;-51
2021/12/17 17:31:13;;;;;;;17.92;11.35;;;;;;;4.92;82.86;100349.35;1740539;82;21791;-52
2021/12/17 17:34:21;;;;;;;20.80;11.30;;;;;;;4.91;82.73;100344.94;1751529;80;21357;-51
2021/12/17 17:37:31;;;;;;;30.80;15.43;;;;;;;4.90;82.73;100347.79;1766983;81;21314;-51
2021/12/17 17:40:37;;;;;;;28.15;13.80;;;;;;;4.89;82.73;100347.41;1772364;80;21188;-54